sensor_id;sensor_type;location;lat;lon;timestamp;P1;durP1;ratioP1;P2;durP2;ratioP2
31770;SDS011;18343;50.152;8.182;2023-04-06T00:01:48;10.13;;;5.20;;
31770;SDS011;18343;50.152;8.182;2023-04-06T00:04:33;6.30;;;4.68;;
31770;SDS011;18343;50.152;8.182;2023-04-06T00:07:18;7.85;;;4.95;;
31770;SDS011;18343;50.152;8.182;2023-04-06T00:10:04;12.30;;;6.00;;
31770;SDS011;18343;50.152;8.182;2023-04-06T00:12:50;11.30;;;5.78;;
31770;SDS011;18343;50.152;8.182;2023-04-06T00:15:36;12.80;;;5.50;;
31770;SDS011;18343;50.152;8.182;2023-04-06T00:18:20;8.32;;;5.72;;
31770;SDS011;18343;50.152;8.182;2023-04-06T00:21:06;7.75;;;5.13;;
31770;SDS011;18343;50.152;8.182;2023-04-06T00:23:51;10.18;;;6.07;;
31770;SDS011;18343;50.152;8.182;2023-04-06T00:26:37;10.98;;;5.95;;
31770;SDS011;18343;50.152;8.182;2023-04-06T00:29:22;12.25;;;6.50;;
31770;SDS011;18343;50.152;8.182;2023-04-06T00:32:06;11.23;;;6.50;;
31770;SDS011;18343;50.152;8.182;2023-04-06T00:34:52;10.35;;;6.18;;
31770;SDS011;18343;50.152;8.182;2023-04-06T00:37:36;11.73;;;6.22;;
31770;SDS011;18343;50.152;8.182;2023-04-06T00:40:21;11.23;;;6.40;;
31770;SDS011;18343;50.152;8.182;2023-04-06T00:43:07;11.85;;;7.75;;
31770;SDS011;18343;50.152;8.182;2023-04-06T00:45:52;11.07;;;7.53;;
31770;SDS011;18343;50.152;8.182;2023-04-06T00:48:36;13.45;;;7.80;;
31770;SDS011;18343;50.152;8.182;2023-04-06T00:51:22;12.85;;;6.97;;
31770;SDS011;18343;50.152;8.182;2023-04-06T00:54:06;10.52;;;6.68;;
31770;SDS011;18343;50.152;8.182;2023-04-06T00:56:51;10.65;;;6.35;;
31770;SDS011;18343;50.152;8.182;2023-04-06T00:59:38;10.40;;;6.38;;
31770;SDS011;18343;50.152;8.182;2023-04-06T01:02:23;9.90;;;6.32;;
31770;SDS011;18343;50.152;8.182;2023-04-06T01:05:08;19.83;;;7.43;;
31770;SDS011;18343;50.152;8.182;2023-04-06T01:07:53;13.80;;;7.03;;
31770;SDS011;18343;50.152;8.182;2023-04-06T01:10:37;10.43;;;6.30;;
31770;SDS011;18343;50.152;8.182;2023-04-06T01:13:22;10.52;;;6.13;;
31770;SDS011;18343;50.152;8.182;2023-04-06T01:16:08;9.77;;;6.50;;
31770;SDS011;18343;50.152;8.182;2023-04-06T01:18:53;9.05;;;6.25;;
31770;SDS011;18343;50.152;8.182;2023-04-06T01:21:37;12.57;;;6.47;;
31770;SDS011;18343;50.152;8.182;2023-04-06T01:24:24;11.10;;;6.38;;
31770;SDS011;18343;50.152;8.182;2023-04-06T01:27:09;12.05;;;6.90;;
31770;SDS011;18343;50.152;8.182;2023-04-06T01:29:54;11.63;;;7.40;;
31770;SDS011;18343;50.152;8.182;2023-04-06T01:32:39;14.85;;;6.97;;
31770;SDS011;18343;50.152;8.182;2023-04-06T01:35:25;14.07;;;7.32;;
31770;SDS011;18343;50.152;8.182;2023-04-06T01:38:11;13.85;;;7.35;;
31770;SDS011;18343;50.152;8.182;2023-04-06T01:40:57;10.48;;;6.45;;
31770;SDS011;18343;50.152;8.182;2023-04-06T01:43:42;14.50;;;6.97;;
31770;SDS011;18343;50.152;8.182;2023-04-06T01:46:28;12.35;;;6.80;;
31770;SDS011;18343;50.152;8.182;2023-04-06T01:49:13;9.07;;;6.10;;
31770;SDS011;18343;50.152;8.182;2023-04-06T01:51:57;9.73;;;5.63;;
31770;SDS011;18343;50.152;8.182;2023-04-06T01:54:42;10.93;;;5.97;;
31770;SDS011;18343;50.152;8.182;2023-04-06T01:57:28;10.80;;;6.35;;
31770;SDS011;18343;50.152;8.182;2023-04-06T02:00:13;11.02;;;6.65;;
31770;SDS011;18343;50.152;8.182;2023-04-06T02:02:59;10.32;;;5.75;;
31770;SDS011;18343;50.152;8.182;2023-04-06T02:05:44;11.55;;;6.20;;
31770;SDS011;18343;50.152;8.182;2023-04-06T02:08:29;9.00;;;6.18;;
31770;SDS011;18343;50.152;8.182;2023-04-06T02:11:13;10.80;;;6.25;;
31770;SDS011;18343;50.152;8.182;2023-04-06T02:13:59;10.23;;;6.13;;
31770;SDS011;18343;50.152;8.182;2023-04-06T02:16:44;11.90;;;6.20;;
31770;SDS011;18343;50.152;8.182;2023-04-06T02:19:28;9.13;;;6.47;;
31770;SDS011;18343;50.152;8.182;2023-04-06T02:22:13;9.43;;;5.88;;
31770;SDS011;18343;50.152;8.182;2023-04-06T02:24:57;12.43;;;6.93;;
31770;SDS011;18343;50.152;8.182;2023-04-06T02:27:42;12.00;;;6.60;;
31770;SDS011;18343;50.152;8.182;2023-04-06T02:30:28;12.23;;;7.25;;
31770;SDS011;18343;50.152;8.182;2023-04-06T02:33:13;15.27;;;7.05;;
31770;SDS011;18343;50.152;8.182;2023-04-06T02:35:57;9.63;;;6.40;;
31770;SDS011;18343;50.152;8.182;2023-04-06T02:38:42;12.63;;;6.10;;
31770;SDS011;18343;50.152;8.182;2023-04-06T02:41:27;9.82;;;6.35;;
31770;SDS011;18343;50.152;8.182;2023-04-06T02:44:11;9.40;;;6.30;;
31770;SDS011;18343;50.152;8.182;2023-04-06T02:46:57;20.08;;;7.88;;
31770;SDS011;18343;50.152;8.182;2023-04-06T02:49:42;13.05;;;8.40;;
31770;SDS011;18343;50.152;8.182;2023-04-06T02:52:26;11.35;;;6.68;;
31770;SDS011;18343;50.152;8.182;2023-04-06T02:55:11;12.50;;;7.95;;
31770;SDS011;18343;50.152;8.182;2023-04-06T02:57:56;14.88;;;7.93;;
31770;SDS011;18343;50.152;8.182;2023-04-06T03:00:40;12.65;;;7.20;;
31770;SDS011;18343;50.152;8.182;2023-04-06T03:03:27;14.27;;;7.78;;
31770;SDS011;18343;50.152;8.182;2023-04-06T03:06:11;14.77;;;7.85;;
31770;SDS011;18343;50.152;8.182;2023-04-06T03:08:56;12.88;;;7.88;;
31770;SDS011;18343;50.152;8.182;2023-04-06T03:11:40;16.50;;;9.00;;
31770;SDS011;18343;50.152;8.182;2023-04-06T03:14:27;13.20;;;7.75;;
31770;SDS011;18343;50.152;8.182;2023-04-06T03:17:12;15.30;;;8.00;;
31770;SDS011;18343;50.152;8.182;2023-04-06T03:19:58;14.13;;;7.93;;
31770;SDS011;18343;50.152;8.182;2023-04-06T03:22:42;13.25;;;7.30;;
31770;SDS011;18343;50.152;8.182;2023-04-06T03:25:27;21.60;;;8.85;;
31770;SDS011;18343;50.152;8.182;2023-04-06T03:28:12;17.58;;;8.48;;
31770;SDS011;18343;50.152;8.182;2023-04-06T03:30:56;19.33;;;8.18;;
31770;SDS011;18343;50.152;8.182;2023-04-06T03:33:41;19.00;;;8.10;;
31770;SDS011;18343;50.152;8.182;2023-04-06T03:36:27;17.45;;;8.45;;
31770;SDS011;18343;50.152;8.182;2023-04-06T03:39:12;16.38;;;8.73;;
31770;SDS011;18343;50.152;8.182;2023-04-06T03:41:56;17.13;;;8.13;;
31770;SDS011;18343;50.152;8.182;2023-04-06T03:44:41;16.95;;;8.63;;
31770;SDS011;18343;50.152;8.182;2023-04-06T03:47:26;17.23;;;9.13;;
31770;SDS011;18343;50.152;8.182;2023-04-06T03:50:10;18.30;;;8.20;;
31770;SDS011;18343;50.152;8.182;2023-04-06T03:52:56;16.40;;;8.65;;
31770;SDS011;18343;50.152;8.182;2023-04-06T03:55:40;13.80;;;8.40;;
31770;SDS011;18343;50.152;8.182;2023-04-06T03:58:25;14.65;;;8.50;;
31770;SDS011;18343;50.152;8.182;2023-04-06T04:01:10;16.50;;;8.38;;
31770;SDS011;18343;50.152;8.182;2023-04-06T04:03:55;16.95;;;10.27;;
31770;SDS011;18343;50.152;8.182;2023-04-06T04:06:40;27.00;;;10.25;;
31770;SDS011;18343;50.152;8.182;2023-04-06T04:09:26;16.40;;;9.52;;
31770;SDS011;18343;50.152;8.182;2023-04-06T04:12:10;16.02;;;8.85;;
31770;SDS011;18343;50.152;8.182;2023-04-06T04:14:55;15.88;;;9.30;;
31770;SDS011;18343;50.152;8.182;2023-04-06T04:17:40;14.43;;;8.85;;
31770;SDS011;18343;50.152;8.182;2023-04-06T04:20:24;17.75;;;8.45;;
31770;SDS011;18343;50.152;8.182;2023-04-06T04:23:09;13.43;;;8.43;;
31770;SDS011;18343;50.152;8.182;2023-04-06T04:25:55;13.55;;;8.75;;
31770;SDS011;18343;50.152;8.182;2023-04-06T04:28:40;16.58;;;9.25;;
31770;SDS011;18343;50.152;8.182;2023-04-06T04:31:24;21.92;;;11.57;;
31770;SDS011;18343;50.152;8.182;2023-04-06T04:34:09;15.82;;;9.40;;
31770;SDS011;18343;50.152;8.182;2023-04-06T04:36:54;20.92;;;9.48;;
31770;SDS011;18343;50.152;8.182;2023-04-06T04:39:38;15.68;;;9.68;;
31770;SDS011;18343;50.152;8.182;2023-04-06T04:42:24;21.92;;;10.43;;
31770;SDS011;18343;50.152;8.182;2023-04-06T04:45:09;22.70;;;11.07;;
31770;SDS011;18343;50.152;8.182;2023-04-06T04:47:54;16.95;;;10.32;;
31770;SDS011;18343;50.152;8.182;2023-04-06T04:50:39;19.95;;;10.32;;
31770;SDS011;18343;50.152;8.182;2023-04-06T04:53:23;20.05;;;10.55;;
31770;SDS011;18343;50.152;8.182;2023-04-06T04:56:08;19.63;;;9.77;;
31770;SDS011;18343;50.152;8.182;2023-04-06T04:58:54;23.15;;;10.65;;
31770;SDS011;18343;50.152;8.182;2023-04-06T05:01:39;24.17;;;11.63;;
31770;SDS011;18343;50.152;8.182;2023-04-06T05:04:24;22.95;;;11.02;;
31770;SDS011;18343;50.152;8.182;2023-04-06T05:07:08;21.05;;;11.60;;
31770;SDS011;18343;50.152;8.182;2023-04-06T05:09:53;17.80;;;10.98;;
31770;SDS011;18343;50.152;8.182;2023-04-06T05:12:38;24.42;;;10.40;;
31770;SDS011;18343;50.152;8.182;2023-04-06T05:15:24;22.90;;;12.20;;
31770;SDS011;18343;50.152;8.182;2023-04-06T05:18:09;25.05;;;11.90;;
31770;SDS011;18343;50.152;8.182;2023-04-06T05:20:54;17.52;;;11.30;;
31770;SDS011;18343;50.152;8.182;2023-04-06T05:23:39;22.30;;;10.77;;
31770;SDS011;18343;50.152;8.182;2023-04-06T05:26:23;21.10;;;11.27;;
31770;SDS011;18343;50.152;8.182;2023-04-06T05:29:08;20.10;;;10.63;;
31770;SDS011;18343;50.152;8.182;2023-04-06T05:31:55;19.75;;;11.07;;
31770;SDS011;18343;50.152;8.182;2023-04-06T05:34:40;20.50;;;11.60;;
31770;SDS011;18343;50.152;8.182;2023-04-06T05:37:25;20.83;;;12.10;;
31770;SDS011;18343;50.152;8.182;2023-04-06T05:40:10;23.38;;;10.98;;
31770;SDS011;18343;50.152;8.182;2023-04-06T05:42:55;19.13;;;11.45;;
31770;SDS011;18343;50.152;8.182;2023-04-06T05:45:39;18.52;;;10.88;;
31770;SDS011;18343;50.152;8.182;2023-04-06T05:48:25;17.75;;;10.77;;
31770;SDS011;18343;50.152;8.182;2023-04-06T05:51:10;24.27;;;12.02;;
31770;SDS011;18343;50.152;8.182;2023-04-06T05:53:55;18.83;;;11.85;;
31770;SDS011;18343;50.152;8.182;2023-04-06T05:56:39;20.60;;;11.23;;
31770;SDS011;18343;50.152;8.182;2023-04-06T05:59:24;25.70;;;11.52;;
31770;SDS011;18343;50.152;8.182;2023-04-06T06:02:09;21.83;;;11.85;;
31770;SDS011;18343;50.152;8.182;2023-04-06T06:04:55;25.17;;;11.98;;
31770;SDS011;18343;50.152;8.182;2023-04-06T06:07:40;22.20;;;11.70;;
31770;SDS011;18343;50.152;8.182;2023-04-06T06:10:24;19.58;;;12.00;;
31770;SDS011;18343;50.152;8.182;2023-04-06T06:13:09;22.23;;;11.48;;
31770;SDS011;18343;50.152;8.182;2023-04-06T06:15:54;25.45;;;11.55;;
31770;SDS011;18343;50.152;8.182;2023-04-06T06:18:38;24.50;;;11.55;;
31770;SDS011;18343;50.152;8.182;2023-04-06T06:21:24;19.13;;;10.75;;
31770;SDS011;18343;50.152;8.182;2023-04-06T06:24:09;19.50;;;10.65;;
31770;SDS011;18343;50.152;8.182;2023-04-06T06:26:53;19.23;;;10.82;;
31770;SDS011;18343;50.152;8.182;2023-04-06T06:29:38;21.48;;;10.77;;
31770;SDS011;18343;50.152;8.182;2023-04-06T06:32:23;16.98;;;9.60;;
31770;SDS011;18343;50.152;8.182;2023-04-06T06:35:08;18.25;;;9.93;;
31770;SDS011;18343;50.152;8.182;2023-04-06T06:37:54;18.95;;;10.52;;
31770;SDS011;18343;50.152;8.182;2023-04-06T06:40:39;16.17;;;9.75;;
31770;SDS011;18343;50.152;8.182;2023-04-06T06:43:24;19.88;;;9.60;;
31770;SDS011;18343;50.152;8.182;2023-04-06T06:46:09;22.42;;;9.57;;
31770;SDS011;18343;50.152;8.182;2023-04-06T06:48:54;19.42;;;10.10;;
31770;SDS011;18343;50.152;8.182;2023-04-06T06:51:38;19.30;;;9.57;;
31770;SDS011;18343;50.152;8.182;2023-04-06T06:54:24;15.93;;;9.27;;
31770;SDS011;18343;50.152;8.182;2023-04-06T06:57:08;15.27;;;9.43;;
31770;SDS011;18343;50.152;8.182;2023-04-06T06:59:53;16.67;;;8.93;;
31770;SDS011;18343;50.152;8.182;2023-04-06T07:02:37;15.25;;;9.52;;
31770;SDS011;18343;50.152;8.182;2023-04-06T07:05:22;17.98;;;10.57;;
31770;SDS011;18343;50.152;8.182;2023-04-06T07:08:07;15.52;;;9.20;;
31770;SDS011;18343;50.152;8.182;2023-04-06T07:10:53;16.08;;;9.50;;
31770;SDS011;18343;50.152;8.182;2023-04-06T07:13:38;14.00;;;8.07;;
31770;SDS011;18343;50.152;8.182;2023-04-06T07:16:22;15.02;;;9.27;;
31770;SDS011;18343;50.152;8.182;2023-04-06T07:19:07;17.25;;;7.93;;
31770;SDS011;18343;50.152;8.182;2023-04-06T07:21:52;14.15;;;8.63;;
31770;SDS011;18343;50.152;8.182;2023-04-06T07:24:36;14.57;;;8.35;;
31770;SDS011;18343;50.152;8.182;2023-04-06T07:27:23;15.13;;;8.30;;
31770;SDS011;18343;50.152;8.182;2023-04-06T07:30:07;14.73;;;7.07;;
31770;SDS011;18343;50.152;8.182;2023-04-06T07:32:53;16.52;;;7.75;;
31770;SDS011;18343;50.152;8.182;2023-04-06T07:35:38;16.95;;;8.60;;
31770;SDS011;18343;50.152;8.182;2023-04-06T07:38:22;16.42;;;8.13;;
31770;SDS011;18343;50.152;8.182;2023-04-06T07:41:07;15.18;;;8.75;;
31770;SDS011;18343;50.152;8.182;2023-04-06T07:43:52;14.52;;;8.27;;
31770;SDS011;18343;50.152;8.182;2023-04-06T07:46:37;17.60;;;8.65;;
31770;SDS011;18343;50.152;8.182;2023-04-06T07:49:22;16.13;;;8.50;;
31770;SDS011;18343;50.152;8.182;2023-04-06T07:52:06;16.65;;;8.40;;
31770;SDS011;18343;50.152;8.182;2023-04-06T07:54:50;15.27;;;8.73;;
31770;SDS011;18343;50.152;8.182;2023-04-06T07:57:35;18.10;;;9.35;;
31770;SDS011;18343;50.152;8.182;2023-04-06T08:00:22;19.58;;;8.80;;
31770;SDS011;18343;50.152;8.182;2023-04-06T08:03:07;19.92;;;10.25;;
31770;SDS011;18343;50.152;8.182;2023-04-06T08:05:52;17.45;;;9.77;;
31770;SDS011;18343;50.152;8.182;2023-04-06T08:08:36;17.65;;;10.02;;
31770;SDS011;18343;50.152;8.182;2023-04-06T08:11:21;17.75;;;9.45;;
31770;SDS011;18343;50.152;8.182;2023-04-06T08:14:06;18.10;;;10.32;;
31770;SDS011;18343;50.152;8.182;2023-04-06T08:16:51;17.15;;;10.23;;
31770;SDS011;18343;50.152;8.182;2023-04-06T08:19:36;18.35;;;9.63;;
31770;SDS011;18343;50.152;8.182;2023-04-06T08:22:21;17.58;;;10.40;;
31770;SDS011;18343;50.152;8.182;2023-04-06T08:25:05;24.80;;;9.52;;
31770;SDS011;18343;50.152;8.182;2023-04-06T08:27:51;17.45;;;10.35;;
31770;SDS011;18343;50.152;8.182;2023-04-06T08:30:36;21.58;;;10.43;;
31770;SDS011;18343;50.152;8.182;2023-04-06T08:33:25;21.77;;;9.55;;
31770;SDS011;18343;50.152;8.182;2023-04-06T08:36:10;19.98;;;10.88;;
31770;SDS011;18343;50.152;8.182;2023-04-06T08:38:58;15.20;;;10.13;;
31770;SDS011;18343;50.152;8.182;2023-04-06T08:41:43;23.58;;;11.02;;
31770;SDS011;18343;50.152;8.182;2023-04-06T08:44:28;18.63;;;10.85;;
31770;SDS011;18343;50.152;8.182;2023-04-06T08:47:13;30.52;;;11.57;;
31770;SDS011;18343;50.152;8.182;2023-04-06T08:49:59;21.10;;;10.25;;
31770;SDS011;18343;50.152;8.182;2023-04-06T08:52:48;19.58;;;10.55;;
31770;SDS011;18343;50.152;8.182;2023-04-06T08:55:33;30.98;;;10.15;;
31770;SDS011;18343;50.152;8.182;2023-04-06T08:58:19;18.92;;;9.73;;
31770;SDS011;18343;50.152;8.182;2023-04-06T09:01:08;18.63;;;10.55;;
31770;SDS011;18343;50.152;8.182;2023-04-06T09:04:06;19.85;;;10.50;;
31770;SDS011;18343;50.152;8.182;2023-04-06T09:10:16;21.15;;;11.45;;
31770;SDS011;18343;50.152;8.182;2023-04-06T09:16:39;19.15;;;9.77;;
31770;SDS011;18343;50.152;8.182;2023-04-06T09:20:23;20.60;;;10.68;;
31770;SDS011;18343;50.152;8.182;2023-04-06T09:23:18;19.77;;;10.55;;
31770;SDS011;18343;50.152;8.182;2023-04-06T09:26:10;18.83;;;10.55;;
31770;SDS011;18343;50.152;8.182;2023-04-06T09:29:03;22.70;;;11.23;;
31770;SDS011;18343;50.152;8.182;2023-04-06T09:31:52;21.13;;;10.88;;
31770;SDS011;18343;50.152;8.182;2023-04-06T09:34:54;16.70;;;9.68;;
31770;SDS011;18343;50.152;8.182;2023-04-06T09:37:50;22.52;;;10.18;;
31770;SDS011;18343;50.152;8.182;2023-04-06T09:40:48;24.95;;;10.07;;
31770;SDS011;18343;50.152;8.182;2023-04-06T09:43:34;24.77;;;10.52;;
31770;SDS011;18343;50.152;8.182;2023-04-06T09:46:30;21.73;;;10.05;;
31770;SDS011;18343;50.152;8.182;2023-04-06T09:49:25;22.45;;;11.27;;
31770;SDS011;18343;50.152;8.182;2023-04-06T09:52:14;19.02;;;10.82;;
31770;SDS011;18343;50.152;8.182;2023-04-06T09:55:08;22.70;;;11.10;;
31770;SDS011;18343;50.152;8.182;2023-04-06T09:58:04;16.75;;;10.88;;
31770;SDS011;18343;50.152;8.182;2023-04-06T10:00:57;16.85;;;10.27;;
31770;SDS011;18343;50.152;8.182;2023-04-06T10:04:03;17.83;;;10.23;;
31770;SDS011;18343;50.152;8.182;2023-04-06T10:07:25;22.40;;;11.70;;
31770;SDS011;18343;50.152;8.182;2023-04-06T10:10:22;20.52;;;11.10;;
31770;SDS011;18343;50.152;8.182;2023-04-06T10:13:22;22.75;;;11.18;;
31770;SDS011;18343;50.152;8.182;2023-04-06T10:16:09;18.13;;;10.35;;
31770;SDS011;18343;50.152;8.182;2023-04-06T10:19:13;22.92;;;11.13;;
31770;SDS011;18343;50.152;8.182;2023-04-06T10:22:07;16.70;;;10.80;;
31770;SDS011;18343;50.152;8.182;2023-04-06T10:24:59;17.33;;;10.00;;
31770;SDS011;18343;50.152;8.182;2023-04-06T10:27:45;17.58;;;10.23;;
31770;SDS011;18343;50.152;8.182;2023-04-06T10:30:59;16.02;;;10.52;;
31770;SDS011;18343;50.152;8.182;2023-04-06T10:33:53;20.05;;;10.23;;
31770;SDS011;18343;50.152;8.182;2023-04-06T10:36:54;17.33;;;10.30;;
31770;SDS011;18343;50.152;8.182;2023-04-06T10:39:47;19.52;;;10.48;;
31770;SDS011;18343;50.152;8.182;2023-04-06T10:42:44;21.95;;;11.63;;
31770;SDS011;18343;50.152;8.182;2023-04-06T10:45:35;19.45;;;10.55;;
31770;SDS011;18343;50.152;8.182;2023-04-06T10:48:35;19.10;;;10.75;;
31770;SDS011;18343;50.152;8.182;2023-04-06T10:51:25;18.80;;;11.10;;
31770;SDS011;18343;50.152;8.182;2023-04-06T10:54:22;23.75;;;11.75;;
31770;SDS011;18343;50.152;8.182;2023-04-06T10:57:31;16.08;;;10.68;;
31770;SDS011;18343;50.152;8.182;2023-04-06T11:00:25;19.63;;;11.93;;
31770;SDS011;18343;50.152;8.182;2023-04-06T11:03:14;25.17;;;11.23;;
31770;SDS011;18343;50.152;8.182;2023-04-06T11:06:18;18.73;;;11.50;;
31770;SDS011;18343;50.152;8.182;2023-04-06T11:09:05;19.80;;;11.80;;
31770;SDS011;18343;50.152;8.182;2023-04-06T11:12:26;18.95;;;11.13;;
31770;SDS011;18343;50.152;8.182;2023-04-06T11:15:26;20.33;;;11.93;;
31770;SDS011;18343;50.152;8.182;2023-04-06T11:18:45;21.70;;;11.65;;
31770;SDS011;18343;50.152;8.182;2023-04-06T11:21:40;19.65;;;11.70;;
31770;SDS011;18343;50.152;8.182;2023-04-06T11:24:32;18.48;;;10.95;;
31770;SDS011;18343;50.152;8.182;2023-04-06T11:27:19;19.40;;;11.23;;
31770;SDS011;18343;50.152;8.182;2023-04-06T11:30:07;16.80;;;10.48;;
31770;SDS011;18343;50.152;8.182;2023-04-06T11:33:00;16.75;;;10.75;;
31770;SDS011;18343;50.152;8.182;2023-04-06T11:35:59;16.08;;;10.20;;
31770;SDS011;18343;50.152;8.182;2023-04-06T11:38:52;20.25;;;10.13;;
31770;SDS011;18343;50.152;8.182;2023-04-06T11:41:55;22.65;;;11.95;;
31770;SDS011;18343;50.152;8.182;2023-04-06T11:44:44;18.95;;;11.18;;
31770;SDS011;18343;50.152;8.182;2023-04-06T11:47:33;17.42;;;11.52;;
31770;SDS011;18343;50.152;8.182;2023-04-06T11:50:33;16.33;;;11.73;;
31770;SDS011;18343;50.152;8.182;2023-04-06T11:53:42;20.05;;;11.90;;
31770;SDS011;18343;50.152;8.182;2023-04-06T11:56:37;19.55;;;11.80;;
31770;SDS011;18343;50.152;8.182;2023-04-06T11:59:38;15.30;;;10.43;;
31770;SDS011;18343;50.152;8.182;2023-04-06T12:02:33;16.60;;;10.85;;
31770;SDS011;18343;50.152;8.182;2023-04-06T12:05:30;18.33;;;10.75;;
31770;SDS011;18343;50.152;8.182;2023-04-06T12:08:21;19.25;;;11.48;;
31770;SDS011;18343;50.152;8.182;2023-04-06T12:11:58;20.63;;;11.80;;
31770;SDS011;18343;50.152;8.182;2023-04-06T12:14:58;25.90;;;11.32;;
31770;SDS011;18343;50.152;8.182;2023-04-06T12:17:49;19.65;;;11.05;;
31770;SDS011;18343;50.152;8.182;2023-04-06T12:20:39;16.67;;;10.65;;
31770;SDS011;18343;50.152;8.182;2023-04-06T12:23:39;18.55;;;10.43;;
31770;SDS011;18343;50.152;8.182;2023-04-06T12:30:01;25.48;;;12.38;;
31770;SDS011;18343;50.152;8.182;2023-04-06T12:32:50;23.35;;;11.27;;
31770;SDS011;18343;50.152;8.182;2023-04-06T12:35:38;18.00;;;11.32;;
31770;SDS011;18343;50.152;8.182;2023-04-06T12:38:44;19.83;;;11.82;;
31770;SDS011;18343;50.152;8.182;2023-04-06T12:41:59;15.90;;;10.65;;
31770;SDS011;18343;50.152;8.182;2023-04-06T12:44:54;22.08;;;10.63;;
31770;SDS011;18343;50.152;8.182;2023-04-06T12:47:45;17.80;;;10.35;;
31770;SDS011;18343;50.152;8.182;2023-04-06T12:50:44;16.20;;;10.15;;
31770;SDS011;18343;50.152;8.182;2023-04-06T12:53:40;19.42;;;10.15;;
31770;SDS011;18343;50.152;8.182;2023-04-06T12:56:48;19.33;;;10.68;;
31770;SDS011;18343;50.152;8.182;2023-04-06T12:59:44;14.70;;;9.50;;
31770;SDS011;18343;50.152;8.182;2023-04-06T13:02:48;16.35;;;10.75;;
31770;SDS011;18343;50.152;8.182;2023-04-06T13:05:45;15.18;;;9.27;;
31770;SDS011;18343;50.152;8.182;2023-04-06T13:08:38;14.18;;;9.98;;
31770;SDS011;18343;50.152;8.182;2023-04-06T13:11:26;17.70;;;9.23;;
31770;SDS011;18343;50.152;8.182;2023-04-06T13:14:25;18.48;;;10.80;;
31770;SDS011;18343;50.152;8.182;2023-04-06T13:17:16;18.50;;;10.75;;
31770;SDS011;18343;50.152;8.182;2023-04-06T13:20:11;14.75;;;9.38;;
31770;SDS011;18343;50.152;8.182;2023-04-06T13:23:03;17.13;;;10.00;;
31770;SDS011;18343;50.152;8.182;2023-04-06T13:25:57;18.27;;;10.82;;
31770;SDS011;18343;50.152;8.182;2023-04-06T13:28:44;15.52;;;9.95;;
31770;SDS011;18343;50.152;8.182;2023-04-06T13:31:34;18.90;;;9.27;;
31770;SDS011;18343;50.152;8.182;2023-04-06T13:34:27;19.35;;;10.82;;
31770;SDS011;18343;50.152;8.182;2023-04-06T13:37:24;18.95;;;10.85;;
31770;SDS011;18343;50.152;8.182;2023-04-06T13:40:09;16.42;;;10.27;;
31770;SDS011;18343;50.152;8.182;2023-04-06T13:45:56;19.20;;;10.70;;
31770;SDS011;18343;50.152;8.182;2023-04-06T13:51:37;21.38;;;10.60;;
31770;SDS011;18343;50.152;8.182;2023-04-06T13:54:33;21.25;;;10.88;;
31770;SDS011;18343;50.152;8.182;2023-04-06T13:57:21;22.60;;;12.23;;
31770;SDS011;18343;50.152;8.182;2023-04-06T14:00:17;20.50;;;11.35;;
31770;SDS011;18343;50.152;8.182;2023-04-06T14:03:07;19.70;;;10.60;;
31770;SDS011;18343;50.152;8.182;2023-04-06T14:05:58;17.30;;;9.45;;
31770;SDS011;18343;50.152;8.182;2023-04-06T14:09:11;17.48;;;9.65;;
31770;SDS011;18343;50.152;8.182;2023-04-06T14:12:11;15.63;;;9.15;;
31770;SDS011;18343;50.152;8.182;2023-04-06T14:15:03;13.60;;;8.20;;
31770;SDS011;18343;50.152;8.182;2023-04-06T14:18:07;16.02;;;8.15;;
31770;SDS011;18343;50.152;8.182;2023-04-06T14:21:06;14.27;;;7.85;;
31770;SDS011;18343;50.152;8.182;2023-04-06T14:24:03;13.88;;;7.80;;
31770;SDS011;18343;50.152;8.182;2023-04-06T14:33:05;14.13;;;7.47;;
31770;SDS011;18343;50.152;8.182;2023-04-06T14:36:03;14.55;;;7.75;;
31770;SDS011;18343;50.152;8.182;2023-04-06T14:38:59;11.50;;;7.35;;
31770;SDS011;18343;50.152;8.182;2023-04-06T14:41:44;13.35;;;7.43;;
31770;SDS011;18343;50.152;8.182;2023-04-06T14:44:54;12.55;;;7.72;;
31770;SDS011;18343;50.152;8.182;2023-04-06T14:48:39;12.48;;;7.10;;
31770;SDS011;18343;50.152;8.182;2023-04-06T14:51:35;15.20;;;7.13;;
31770;SDS011;18343;50.152;8.182;2023-04-06T14:54:23;12.52;;;7.00;;
31770;SDS011;18343;50.152;8.182;2023-04-06T14:57:27;13.13;;;7.47;;
31770;SDS011;18343;50.152;8.182;2023-04-06T15:00:21;12.18;;;7.30;;
31770;SDS011;18343;50.152;8.182;2023-04-06T15:03:07;10.40;;;6.60;;
31770;SDS011;18343;50.152;8.182;2023-04-06T15:05:55;15.95;;;7.13;;
31770;SDS011;18343;50.152;8.182;2023-04-06T15:08:43;11.02;;;7.18;;
31770;SDS011;18343;50.152;8.182;2023-04-06T15:11:35;11.75;;;6.85;;
31770;SDS011;18343;50.152;8.182;2023-04-06T15:14:20;10.70;;;6.38;;
31770;SDS011;18343;50.152;8.182;2023-04-06T15:17:17;11.00;;;7.20;;
31770;SDS011;18343;50.152;8.182;2023-04-06T15:20:05;12.23;;;7.00;;
31770;SDS011;18343;50.152;8.182;2023-04-06T15:23:08;13.35;;;7.10;;
31770;SDS011;18343;50.152;8.182;2023-04-06T15:25:56;11.90;;;7.10;;
31770;SDS011;18343;50.152;8.182;2023-04-06T15:28:49;12.07;;;7.50;;
31770;SDS011;18343;50.152;8.182;2023-04-06T15:31:45;16.30;;;8.23;;
31770;SDS011;18343;50.152;8.182;2023-04-06T15:34:32;13.77;;;8.20;;
31770;SDS011;18343;50.152;8.182;2023-04-06T15:37:23;21.80;;;15.15;;
31770;SDS011;18343;50.152;8.182;2023-04-06T15:40:12;12.32;;;7.93;;
31770;SDS011;18343;50.152;8.182;2023-04-06T15:43:02;21.77;;;15.15;;
31770;SDS011;18343;50.152;8.182;2023-04-06T15:45:55;15.05;;;9.30;;
31770;SDS011;18343;50.152;8.182;2023-04-06T15:48:56;9.40;;;6.22;;
31770;SDS011;18343;50.152;8.182;2023-04-06T15:51:53;8.85;;;5.68;;
31770;SDS011;18343;50.152;8.182;2023-04-06T15:54:38;13.48;;;6.57;;
31770;SDS011;18343;50.152;8.182;2023-04-06T15:57:37;13.75;;;6.63;;
31770;SDS011;18343;50.152;8.182;2023-04-06T16:00:25;12.35;;;5.95;;
31770;SDS011;18343;50.152;8.182;2023-04-06T16:03:16;7.78;;;5.65;;
31770;SDS011;18343;50.152;8.182;2023-04-06T16:06:07;10.68;;;5.38;;
31770;SDS011;18343;50.152;8.182;2023-04-06T16:08:54;8.68;;;5.57;;
31770;SDS011;18343;50.152;8.182;2023-04-06T16:11:44;10.48;;;4.97;;
31770;SDS011;18343;50.152;8.182;2023-04-06T16:14:35;7.55;;;4.53;;
31770;SDS011;18343;50.152;8.182;2023-04-06T16:17:23;7.07;;;3.90;;
31770;SDS011;18343;50.152;8.182;2023-04-06T16:20:13;6.60;;;4.05;;
31770;SDS011;18343;50.152;8.182;2023-04-06T16:23:06;6.65;;;4.30;;
31770;SDS011;18343;50.152;8.182;2023-04-06T16:25:56;9.02;;;5.35;;
31770;SDS011;18343;50.152;8.182;2023-04-06T16:28:58;7.85;;;4.47;;
31770;SDS011;18343;50.152;8.182;2023-04-06T16:31:45;7.07;;;4.60;;
31770;SDS011;18343;50.152;8.182;2023-04-06T16:34:33;8.90;;;4.65;;
31770;SDS011;18343;50.152;8.182;2023-04-06T16:37:26;8.35;;;5.68;;
31770;SDS011;18343;50.152;8.182;2023-04-06T16:40:18;11.05;;;5.95;;
31770;SDS011;18343;50.152;8.182;2023-04-06T16:43:11;7.55;;;5.10;;
31770;SDS011;18343;50.152;8.182;2023-04-06T16:45:56;9.68;;;5.15;;
31770;SDS011;18343;50.152;8.182;2023-04-06T16:48:42;10.98;;;6.20;;
31770;SDS011;18343;50.152;8.182;2023-04-06T16:51:41;8.45;;;5.28;;
31770;SDS011;18343;50.152;8.182;2023-04-06T16:54:26;8.70;;;5.13;;
31770;SDS011;18343;50.152;8.182;2023-04-06T16:57:24;10.80;;;6.43;;
31770;SDS011;18343;50.152;8.182;2023-04-06T17:00:11;9.40;;;5.55;;
31770;SDS011;18343;50.152;8.182;2023-04-06T17:03:05;19.60;;;8.60;;
31770;SDS011;18343;50.152;8.182;2023-04-06T17:05:58;11.38;;;7.20;;